New Richmond Regional Airport
KRNH : now visible

Airfield :











YOU CAN JOIN US ON...

 
LOGIN :

Register | Disclaimer

   EN    FR    IT 

 









Legend :    VFR   Marginal VFR   IFR   Intensive IFR   Very Intensive IFR
Visi :
Ceiling :
>= 8 km
>= 3000ft
5 to 8 km
1000 to 3000 ft
1500m to 5 km
500 to 1000 ft
800 to 1500m
200 to 500 ft
< 800m
< 200 ft
Symbols :   Thunderstorms  Fog  Heavy snow  Heavy precipitations  Wind > 20 kt






- Airport Elevation : 998 ft


KRNH - New Richmond Regional

CURRENT METAR :
  • 170435Z AUTO 11005KT 10SM OVC034 M07/M15 A3004 RMK AO2 T10661146

EXPIRED METARs :
  • 170415Z AUTO 11005KT 10SM OVC034 M07/M15 A3006 RMK AO2 T10671146
  • 170355Z AUTO 10005KT 10SM OVC034 M07/M14 A3006 RMK AO2 T10691145
  • 170335Z AUTO 10007KT 10SM OVC036 M07/M15 A3006 RMK AO2 T10701146
  • 170315Z AUTO 09004KT 10SM OVC036 M07/M15 A3007 RMK AO2 T10701149
  • 170255Z AUTO 07003KT 10SM OVC038 M07/M14 A3008 RMK AO2 T10701140
  • 170235Z AUTO 00000KT 10SM BKN042 OVC110 M07/M14 A3008 RMK AO2 T10701144
  • 170215Z AUTO 09004KT 10SM SCT044 OVC110 M07/M14 A3008 RMK AO2 T10711145
  • 170155Z AUTO 11003KT 10SM OVC046 M07/M15 A3008 RMK AO2 T10701150
  • 170135Z AUTO 11003KT 10SM OVC048 M07/M15 A3009 RMK AO2 T10701155

TAF KRNH
Valid from the 17 at 00:00 until the 18 at 00:00 UTC


162333Z 1700/1724 01004KT P6SM BKN070
FM171000 14008KT P6SM BKN024
FM171200 13008KT P6SM BKN016
FM171400 13007KT 5SM -SHSN BR OVC009
FM171600 13007KT 3SM -SN BR OVC007
PROB30 1717/1721 2SM -SN
FM172300 06003KT 6SM -SHSN OVC015



MET'MAP, your aeronautical weather chart ! - Copyright ORBIFLY December 2007 - Disclaimer

ORBIFLY MET'MAP TEAM :

Programming & Development : Alexandra Zaïnal
Concept & original design : Baudouin d'Aumeries
Assistance for programming : Marc-Olivier Méhu
Technical & hardware support : Manuel Goepfert

Contact : metmap@orbifly.com




SOURCES & CREDITS :

   NOAA       Earth
Advisory